createdAt,value
2023-01-30T00:02:13.385Z,-2.21
2023-01-30T00:05:17.969Z,-2.39
2023-01-30T00:08:22.689Z,-2.48
2023-01-30T00:11:29.926Z,-2.52
2023-01-30T00:14:34.450Z,-2.33
2023-01-30T00:17:38.927Z,-2.36
2023-01-30T00:20:43.467Z,-2.32
2023-01-30T00:23:47.980Z,-2.48
2023-01-30T00:26:52.539Z,-2.46
2023-01-30T00:30:02.743Z,-2.70
2023-01-30T00:33:09.680Z,-2.61
2023-01-30T00:36:14.140Z,-2.98
2023-01-30T00:39:18.665Z,-2.52
2023-01-30T00:42:41.575Z,-2.44
2023-01-30T00:46:05.749Z,-2.56
2023-01-30T00:49:10.905Z,-3.02
2023-01-30T00:52:15.417Z,-2.49
2023-01-30T00:55:20.128Z,-2.62
2023-01-30T00:58:24.983Z,-2.96
2023-01-30T01:01:29.541Z,-2.83
2023-01-30T01:04:43.070Z,-2.85
2023-01-30T01:07:49.858Z,-2.62
2023-01-30T01:10:54.428Z,-2.85
2023-01-30T01:14:00.478Z,-2.87
2023-01-30T01:17:05.794Z,-2.92
2023-01-30T01:20:10.566Z,-3.07
2023-01-30T01:23:15.151Z,-2.93
2023-01-30T01:26:20.280Z,-3.11
2023-01-30T01:29:24.921Z,-2.96
2023-01-30T01:32:29.688Z,-2.82
2023-01-30T01:35:40.825Z,-2.99
2023-01-30T01:38:45.423Z,-3.10
2023-01-30T01:41:49.952Z,-2.85
2023-01-30T01:45:03.627Z,-2.94
2023-01-30T01:48:14.604Z,-2.65
2023-01-30T01:51:20.970Z,-2.84
2023-01-30T01:54:34.754Z,-3.02
2023-01-30T01:57:40.853Z,-3.24
2023-01-30T02:00:47.015Z,-3.26
2023-01-30T02:03:56.688Z,-3.23
2023-01-30T02:07:01.283Z,-3.17
2023-01-30T02:10:09.874Z,-3.11
2023-01-30T02:13:15.242Z,-3.61
2023-01-30T02:16:20.271Z,-3.28
2023-01-30T02:19:46.370Z,-3.22
2023-01-30T02:23:17.673Z,-3.07
2023-01-30T02:26:28.591Z,-3.15
2023-01-30T02:29:54.151Z,-2.97
2023-01-30T02:33:14.945Z,-3.18
2023-01-30T02:36:34.482Z,-3.10
2023-01-30T02:39:48.804Z,-3.25
2023-01-30T02:43:12.307Z,-3.13
2023-01-30T02:46:26.681Z,-2.90
2023-01-30T02:49:32.819Z,-3.13
2023-01-30T02:52:37.747Z,-3.08
2023-01-30T02:55:42.921Z,-3.14
2023-01-30T02:59:06.908Z,-3.26
2023-01-30T03:02:31.072Z,-2.99
2023-01-30T03:05:57.713Z,-3.13
2023-01-30T03:09:05.371Z,-3.07
2023-01-30T03:12:49.084Z,-3.24
2023-01-30T03:15:59.976Z,-3.02
2023-01-30T03:19:07.045Z,-2.95
2023-01-30T03:22:11.595Z,-3.12
2023-01-30T03:25:21.742Z,-3.13
2023-01-30T03:28:27.025Z,-3.18
2023-01-30T03:31:31.793Z,-3.10
2023-01-30T03:34:37.455Z,-3.16
2023-01-30T03:37:42.385Z,-2.97
2023-01-30T03:40:47.257Z,-3.21
2023-01-30T03:43:51.791Z,-3.27
2023-01-30T03:46:56.391Z,-3.25
2023-01-30T03:50:01.216Z,-3.05
2023-01-30T03:53:06.103Z,-3.06
2023-01-30T03:56:10.683Z,-3.42
2023-01-30T03:59:15.201Z,-3.21
2023-01-30T04:02:27.009Z,-3.24
2023-01-30T04:05:32.613Z,-3.11
2023-01-30T04:08:41.791Z,-3.31
2023-01-30T04:11:51.300Z,-3.23
2023-01-30T04:14:56.764Z,-3.13
2023-01-30T04:18:20.869Z,-3.58
2023-01-30T04:21:36.114Z,-3.68
2023-01-30T04:24:40.680Z,-3.51
2023-01-30T04:27:45.436Z,-3.46
2023-01-30T04:30:56.695Z,-3.59
2023-01-30T04:34:19.778Z,-3.71
2023-01-30T04:37:24.419Z,-3.76
2023-01-30T04:40:29.058Z,-3.66
2023-01-30T04:43:34.550Z,-3.70
2023-01-30T04:46:51.130Z,-3.82
2023-01-30T04:49:55.682Z,-3.97
2023-01-30T04:53:00.253Z,-3.72
2023-01-30T04:56:05.213Z,-3.75
2023-01-30T04:59:09.837Z,-3.91
2023-01-30T05:02:19.600Z,-3.73
2023-01-30T05:05:25.954Z,-3.80
2023-01-30T05:08:30.890Z,-3.76
2023-01-30T05:11:35.629Z,-3.97
2023-01-30T05:14:41.330Z,-3.95
2023-01-30T05:17:46.292Z,-3.86
2023-01-30T05:20:50.909Z,-4.01
2023-01-30T05:23:56.883Z,-4.10
2023-01-30T05:27:01.417Z,-3.98
2023-01-30T05:30:06.509Z,-3.97
2023-01-30T05:33:11.089Z,-3.97
2023-01-30T05:36:18.057Z,-4.07
2023-01-30T05:39:22.743Z,-4.04
2023-01-30T05:42:29.010Z,-4.37
2023-01-30T05:45:33.594Z,-4.30
2023-01-30T05:48:38.332Z,-4.14
2023-01-30T05:51:42.982Z,-4.10
2023-01-30T05:54:47.517Z,-3.94
2023-01-30T05:57:52.059Z,-3.95
2023-01-30T06:01:09.693Z,-4.19
2023-01-30T06:04:14.185Z,-4.27
2023-01-30T06:07:18.714Z,-4.29
2023-01-30T06:10:23.180Z,-4.17
2023-01-30T06:13:27.767Z,-4.00
2023-01-30T06:16:32.433Z,-3.91
2023-01-30T06:19:39.006Z,-4.34
2023-01-30T06:22:43.513Z,-3.93
2023-01-30T06:25:49.381Z,-4.03
2023-01-30T06:28:53.923Z,-4.05
2023-01-30T06:31:58.388Z,-3.96
2023-01-30T06:35:03.078Z,-4.11
2023-01-30T06:38:11.288Z,-3.95
2023-01-30T06:41:15.832Z,-4.03
2023-01-30T06:44:20.428Z,-3.91
2023-01-30T06:47:25.039Z,-4.04
2023-01-30T06:50:30.920Z,-3.80
2023-01-30T06:53:35.410Z,-4.15
2023-01-30T06:56:39.938Z,-3.84
2023-01-30T06:59:44.436Z,-3.86
2023-01-30T07:02:49.006Z,-3.83
2023-01-30T07:05:54.134Z,-3.78
2023-01-30T07:08:58.647Z,-3.29
2023-01-30T07:12:03.215Z,-3.95
2023-01-30T07:15:08.247Z,-3.95
2023-01-30T07:18:13.237Z,-3.93
2023-01-30T07:21:17.785Z,-3.90
2023-01-30T07:24:22.324Z,-3.93
2023-01-30T07:27:26.855Z,-3.93
2023-01-30T07:30:33.426Z,-4.08
2023-01-30T07:33:38.028Z,-3.70
2023-01-30T07:36:42.572Z,-3.91
2023-01-30T07:39:47.027Z,-3.90
2023-01-30T07:43:00.573Z,-3.55
2023-01-30T07:46:05.265Z,-3.67
2023-01-30T07:49:10.549Z,-3.64
2023-01-30T07:52:15.042Z,-3.67
2023-01-30T07:55:19.950Z,-2.91
2023-01-30T07:58:24.592Z,-2.35
2023-01-30T08:01:29.446Z,-3.34
2023-01-30T08:04:33.999Z,-3.15
2023-01-30T08:07:38.559Z,-2.74
2023-01-30T08:10:43.304Z,-3.10
2023-01-30T08:13:47.905Z,-3.19
2023-01-30T08:16:52.568Z,-3.19
2023-01-30T08:19:57.112Z,-2.95
2023-01-30T08:23:02.357Z,-2.99
2023-01-30T08:26:06.836Z,-3.08
2023-01-30T08:29:11.380Z,-2.88
2023-01-30T08:32:16.035Z,-2.82
2023-01-30T08:35:20.641Z,-3.12
2023-01-30T08:38:25.215Z,-2.96
2023-01-30T08:41:31.025Z,-3.25
2023-01-30T08:44:35.521Z,-2.91
2023-01-30T08:47:40.092Z,-2.91
2023-01-30T08:50:44.605Z,-2.87
2023-01-30T08:53:49.201Z,-2.76
2023-01-30T08:56:53.700Z,-2.75
2023-01-30T09:00:00.065Z,-2.98
2023-01-30T09:03:04.564Z,-2.67
2023-01-30T09:06:09.546Z,-2.43
2023-01-30T09:09:14.108Z,-2.58
2023-01-30T09:12:18.584Z,-2.38
2023-01-30T09:15:23.101Z,-2.48
2023-01-30T09:18:27.662Z,-2.65
2023-01-30T09:21:32.121Z,-2.71
2023-01-30T09:24:36.733Z,-2.36
2023-01-30T09:27:44.393Z,-2.56
2023-01-30T09:30:49.379Z,-2.51
2023-01-30T09:33:54.045Z,-2.39
2023-01-30T09:37:00.249Z,-2.23
2023-01-30T09:40:06.045Z,-2.14
2023-01-30T09:43:28.506Z,-2.19
2023-01-30T09:47:11.840Z,-2.13
2023-01-30T09:50:49.841Z,-1.59
2023-01-30T09:54:17.905Z,-1.85
2023-01-30T09:57:26.066Z,-1.70
2023-01-30T10:00:42.223Z,-1.66
2023-01-30T10:04:01.424Z,-1.35
2023-01-30T10:07:20.432Z,-1.36
2023-01-30T10:10:39.837Z,-1.03
2023-01-30T10:13:59.641Z,-0.76
2023-01-30T10:17:07.031Z,-0.93
2023-01-30T10:20:44.499Z,-0.97
2023-01-30T10:24:26.495Z,-1.22
2023-01-30T10:27:32.832Z,-0.72
2023-01-30T10:30:38.202Z,-0.61
2023-01-30T10:34:03.578Z,-0.32
2023-01-30T10:37:13.662Z,0.84
2023-01-30T10:40:40.509Z,0.94
2023-01-30T10:43:53.284Z,2.78
2023-01-30T10:47:50.375Z,0.78
2023-01-30T10:50:58.229Z,0.39
2023-01-30T10:54:03.881Z,1.10
2023-01-30T10:57:11.339Z,0.73
2023-01-30T11:00:37.759Z,-0.01
2023-01-30T11:03:47.990Z,0.39
2023-01-30T11:06:54.344Z,-0.23
2023-01-30T11:10:00.344Z,0.02
2023-01-30T11:13:05.817Z,-0.14
2023-01-30T11:16:11.266Z,0.06
2023-01-30T11:19:20.766Z,0.24
2023-01-30T11:22:27.009Z,-0.04
2023-01-30T11:25:32.220Z,-0.05
2023-01-30T11:28:43.211Z,-0.25
2023-01-30T11:31:51.015Z,-0.01
2023-01-30T11:35:19.602Z,-0.02
2023-01-30T11:38:25.690Z,0.16
2023-01-30T11:41:30.966Z,-0.48
2023-01-30T11:44:37.980Z,-0.66
2023-01-30T11:47:58.884Z,-0.84
2023-01-30T11:51:06.565Z,-0.77
2023-01-30T11:54:18.656Z,-0.93
2023-01-30T11:57:23.163Z,-0.77
2023-01-30T12:00:50.912Z,-0.58
2023-01-30T12:03:57.250Z,-0.98
2023-01-30T12:07:09.112Z,-0.56
2023-01-30T12:10:14.808Z,-0.74
2023-01-30T12:13:38.756Z,-0.69
2023-01-30T12:16:56.039Z,-0.44
2023-01-30T12:20:28.329Z,-0.67
2023-01-30T12:24:00.367Z,-0.66
2023-01-30T12:27:09.809Z,-0.67
2023-01-30T12:30:34.852Z,-0.47
2023-01-30T12:33:41.098Z,-0.99
2023-01-30T12:36:56.603Z,-0.83
2023-01-30T12:40:18.699Z,-0.65
2023-01-30T12:43:48.971Z,-0.82
2023-01-30T12:47:07.107Z,-0.72
2023-01-30T12:50:23.126Z,-0.78
2023-01-30T12:53:50.273Z,-1.09
2023-01-30T12:57:17.461Z,-0.67
2023-01-30T13:00:49.504Z,-0.93
2023-01-30T13:04:24.490Z,-1.00
2023-01-30T13:07:29.847Z,-1.17
2023-01-30T13:10:48.191Z,-0.87
2023-01-30T13:14:01.497Z,-1.03
2023-01-30T13:17:25.172Z,-1.02
2023-01-30T13:20:44.806Z,-1.00
2023-01-30T13:24:04.486Z,-1.16
2023-01-30T13:27:17.005Z,-1.15
2023-01-30T13:30:25.220Z,-0.96
2023-01-30T13:33:33.940Z,-1.36
2023-01-30T13:37:15.198Z,-1.11
2023-01-30T13:40:23.812Z,-1.59
2023-01-30T13:43:34.538Z,-1.34
2023-01-30T13:46:39.894Z,-1.25
2023-01-30T13:50:08.784Z,-0.99
2023-01-30T13:53:41.482Z,-1.10
2023-01-30T13:57:06.820Z,-1.13
2023-01-30T14:00:26.587Z,-1.22
2023-01-30T14:03:32.919Z,-1.46
2023-01-30T14:06:39.033Z,-1.15
2023-01-30T14:09:49.223Z,-1.04
2023-01-30T14:12:54.259Z,-0.98
2023-01-30T14:16:04.220Z,-0.87
2023-01-30T14:19:33.419Z,-1.20
2023-01-30T14:23:03.334Z,-0.88
2023-01-30T14:26:08.052Z,-1.01
2023-01-30T14:29:38.202Z,-1.11
2023-01-30T14:32:54.421Z,-1.43
2023-01-30T14:35:58.916Z,-1.12
2023-01-30T14:39:39.054Z,-1.16
2023-01-30T14:42:45.362Z,-1.48
2023-01-30T14:45:56.146Z,-1.61
2023-01-30T14:49:16.089Z,-1.61
2023-01-30T14:52:42.469Z,-1.52
2023-01-30T14:56:00.468Z,-1.26
2023-01-30T14:59:23.915Z,-1.40
2023-01-30T15:02:34.742Z,-1.88
2023-01-30T15:05:44.523Z,-1.66
2023-01-30T15:08:50.220Z,-1.31
2023-01-30T15:12:15.474Z,-1.67
2023-01-30T15:15:47.590Z,-1.53
2023-01-30T15:19:19.488Z,-1.35
2023-01-30T15:22:38.179Z,-1.22
2023-01-30T15:25:50.917Z,-1.23
2023-01-30T15:28:58.442Z,-1.16
2023-01-30T15:32:05.063Z,-1.12
2023-01-30T15:35:18.812Z,-1.20
2023-01-30T15:38:32.780Z,-1.13
2023-01-30T15:41:41.238Z,-0.85
2023-01-30T15:45:02.442Z,-0.98
2023-01-30T15:48:25.501Z,-1.01
2023-01-30T15:51:31.987Z,-0.97
2023-01-30T15:54:36.919Z,-0.78
2023-01-30T15:57:43.643Z,-0.84
2023-01-30T16:00:51.850Z,-0.89
2023-01-30T16:03:58.492Z,-0.92
2023-01-30T16:07:14.991Z,-0.99
2023-01-30T16:10:25.500Z,-0.86
2023-01-30T16:13:30.238Z,-0.91
2023-01-30T16:16:35.878Z,-0.98
2023-01-30T16:19:42.419Z,-0.99
2023-01-30T16:22:48.036Z,-0.83
2023-01-30T16:25:54.540Z,-1.00
2023-01-30T16:29:02.438Z,-0.83
2023-01-30T16:32:13.160Z,-0.78
2023-01-30T16:35:27.015Z,-0.56
2023-01-30T16:38:41.628Z,-0.83
2023-01-30T16:41:54.851Z,-0.91
2023-01-30T16:45:19.531Z,-0.79
2023-01-30T16:48:33.114Z,-0.83
2023-01-30T16:51:37.804Z,-0.90
2023-01-30T16:54:47.793Z,-0.88
2023-01-30T16:58:02.531Z,-0.85
2023-01-30T17:01:08.251Z,-0.87
2023-01-30T17:04:20.586Z,-1.04
2023-01-30T17:07:33.764Z,-0.78
2023-01-30T17:10:52.367Z,-0.79
2023-01-30T17:14:20.886Z,-0.76
2023-01-30T17:17:25.418Z,-0.64
2023-01-30T17:20:38.417Z,-0.76
2023-01-30T17:23:44.471Z,-0.94
2023-01-30T17:26:59.124Z,-0.74
2023-01-30T17:30:15.693Z,-0.83
2023-01-30T17:33:20.233Z,-0.81
2023-01-30T17:36:29.746Z,-0.83
2023-01-30T17:39:34.279Z,-0.79
2023-01-30T17:42:38.808Z,-0.92
2023-01-30T17:45:44.830Z,-0.76
2023-01-30T17:48:49.329Z,-0.86
2023-01-30T17:51:55.338Z,-0.81
2023-01-30T17:54:59.939Z,-0.78
2023-01-30T17:58:04.500Z,-0.63
2023-01-30T18:01:08.962Z,-0.85
2023-01-30T18:04:14.799Z,-0.78
2023-01-30T18:07:20.607Z,-0.70
2023-01-30T18:10:25.891Z,-0.73
2023-01-30T18:13:30.492Z,-0.71
2023-01-30T18:16:35.345Z,-0.49
2023-01-30T18:19:39.982Z,-0.70
2023-01-30T18:22:44.684Z,-0.48
2023-01-30T18:25:49.211Z,-0.54
2023-01-30T18:28:54.285Z,-0.68
2023-01-30T18:32:05.618Z,-0.65
2023-01-30T18:35:10.310Z,-0.59
2023-01-30T18:38:14.878Z,-0.57
2023-01-30T18:41:24.095Z,-0.65
2023-01-30T18:44:28.741Z,-0.56
2023-01-30T18:47:34.755Z,-0.71
2023-01-30T18:50:39.350Z,-0.58
2023-01-30T18:53:44.254Z,-0.54
2023-01-30T18:56:48.811Z,-0.61
2023-01-30T18:59:54.835Z,-0.64
2023-01-30T19:02:59.438Z,-0.77
2023-01-30T19:06:04.347Z,-0.59
2023-01-30T19:09:13.364Z,-0.54
2023-01-30T19:12:36.112Z,-0.50
2023-01-30T19:15:40.705Z,-0.78
2023-01-30T19:18:45.262Z,-0.68
2023-01-30T19:21:52.121Z,-0.68
2023-01-30T19:24:56.873Z,-0.64
2023-01-30T19:28:01.360Z,-0.58
2023-01-30T19:31:07.424Z,-0.61
2023-01-30T19:34:15.284Z,-0.75
2023-01-30T19:37:19.784Z,-0.51
2023-01-30T19:40:24.308Z,-0.61
2023-01-30T19:43:28.843Z,-0.39
2023-01-30T19:46:33.563Z,-0.34
2023-01-30T19:49:38.061Z,-0.38
2023-01-30T19:52:42.745Z,-0.45
2023-01-30T19:55:50.937Z,-0.61
2023-01-30T19:58:57.242Z,-0.62
2023-01-30T20:02:01.791Z,-0.72
2023-01-30T20:05:06.568Z,-0.49
2023-01-30T20:08:22.031Z,-0.36
2023-01-30T20:11:35.852Z,-0.46
2023-01-30T20:14:40.314Z,-0.50
2023-01-30T20:17:44.859Z,-0.47
2023-01-30T20:20:49.391Z,-0.46
2023-01-30T20:23:54.376Z,-0.49
2023-01-30T20:26:58.861Z,-0.45
2023-01-30T20:30:03.626Z,-0.47
2023-01-30T20:33:09.838Z,-0.40
2023-01-30T20:36:18.701Z,-0.46
2023-01-30T20:39:23.303Z,-0.40
2023-01-30T20:42:28.138Z,-0.35
2023-01-30T20:45:32.653Z,-0.34
2023-01-30T20:48:38.688Z,-0.42
2023-01-30T20:51:44.831Z,-0.55
2023-01-30T20:54:49.376Z,-0.18
2023-01-30T20:57:54.229Z,-0.28
2023-01-30T21:01:28.179Z,-0.40
2023-01-30T21:04:33.054Z,-0.35
2023-01-30T21:07:37.941Z,-0.37
2023-01-30T21:10:47.131Z,-0.34
2023-01-30T21:13:51.662Z,-0.35
2023-01-30T21:16:56.235Z,-0.48
2023-01-30T21:20:00.802Z,-0.35
2023-01-30T21:23:05.459Z,-0.40
2023-01-30T21:26:12.689Z,-0.17
2023-01-30T21:29:20.719Z,-0.23
2023-01-30T21:32:25.240Z,-0.28
2023-01-30T21:35:30.379Z,-0.21
2023-01-30T21:38:53.881Z,-0.29
2023-01-30T21:42:16.621Z,-0.31
2023-01-30T21:45:21.782Z,-0.24
2023-01-30T21:48:26.661Z,-0.18
2023-01-30T21:51:32.006Z,-0.16
2023-01-30T21:54:36.586Z,-0.09
2023-01-30T21:57:41.063Z,-0.16
2023-01-30T22:00:46.116Z,-0.22
2023-01-30T22:03:50.750Z,-0.16
2023-01-30T22:06:55.643Z,0.04
2023-01-30T22:10:02.126Z,-0.07
2023-01-30T22:13:06.598Z,-0.04
2023-01-30T22:16:13.817Z,-0.05
2023-01-30T22:19:18.407Z,-0.06
2023-01-30T22:22:24.428Z,-0.04
2023-01-30T22:25:28.990Z,0.08
2023-01-30T22:28:35.226Z,-0.09
2023-01-30T22:31:41.213Z,0.02
2023-01-30T22:34:45.830Z,-0.00
2023-01-30T22:37:50.662Z,-0.05
2023-01-30T22:41:11.020Z,-0.10
2023-01-30T22:44:16.758Z,-0.17
2023-01-30T22:47:21.365Z,-0.01
2023-01-30T22:50:26.051Z,-0.24
2023-01-30T22:53:32.544Z,-0.13
2023-01-30T22:56:42.369Z,-0.09
2023-01-30T22:59:46.890Z,-0.05
2023-01-30T23:02:51.424Z,-0.20
2023-01-30T23:05:57.943Z,-0.35
2023-01-30T23:09:04.119Z,-0.26
2023-01-30T23:12:27.337Z,-0.14
2023-01-30T23:15:33.183Z,-0.35
2023-01-30T23:18:56.454Z,-0.09
2023-01-30T23:22:02.809Z,-0.43
2023-01-30T23:25:08.947Z,-0.18
2023-01-30T23:28:13.480Z,-0.30
2023-01-30T23:31:21.445Z,-0.31
2023-01-30T23:34:25.986Z,-0.29
2023-01-30T23:37:52.057Z,-0.36
2023-01-30T23:41:12.272Z,-0.37
2023-01-30T23:44:16.832Z,-0.18
2023-01-30T23:47:21.410Z,-0.04
2023-01-30T23:50:29.016Z,-0.05
2023-01-30T23:53:34.220Z,0.03
2023-01-30T23:56:40.970Z,-0.21
2023-01-30T23:59:45.513Z,0.18
